Terminal Aerodrome Forecast
Issued by NWS Grand Forks, ND

Home | Current Version | Previous Version | Text Only | Print | Product List | Glossary Off
Versions: 1 2 3 4 5 6 7 8 9 10 11 12 13 14 15 16 17 18 19 20 21 22 23 24 25 26

730
FTUS43 KFGF 131737 AAB
TAFGFK
TAF AMD
KGFK 131737Z 1318/1418 33015G25KT P6SM BKN015
      TEMPO 1318/1321 3SM -FZDZ OVC008
     FM132300 35015KT P6SM OVC015
     FM140200 34008KT P6SM BKN025
     FM140500 30004KT P6SM BKN025
     FM141500 34008KT P6SM BKN030=

USA.gov is the U.S. government's official web portal to all federal, state and local government web resources and services.